sensor_id;sensor_type;location;lat;lon;timestamp;P1;durP1;ratioP1;P2;durP2;ratioP2
71048;SDS011;58704;53.358;-6.238;2023-04-03T00:00:59;6.20;;;2.00;;
71048;SDS011;58704;53.358;-6.238;2023-04-03T00:03:25;6.77;;;1.80;;
71048;SDS011;58704;53.358;-6.238;2023-04-03T00:05:50;3.60;;;1.80;;
71048;SDS011;58704;53.358;-6.238;2023-04-03T00:08:16;2.00;;;1.37;;
71048;SDS011;58704;53.358;-6.238;2023-04-03T00:10:42;5.40;;;1.70;;
71048;SDS011;58704;53.358;-6.238;2023-04-03T00:13:07;3.35;;;1.40;;
71048;SDS011;58704;53.358;-6.238;2023-04-03T00:15:33;3.27;;;1.87;;
71048;SDS011;58704;53.358;-6.238;2023-04-03T00:17:59;6.28;;;1.55;;
71048;SDS011;58704;53.358;-6.238;2023-04-03T00:20:25;2.60;;;1.60;;
71048;SDS011;58704;53.358;-6.238;2023-04-03T00:22:51;5.78;;;2.45;;
71048;SDS011;58704;53.358;-6.238;2023-04-03T00:25:16;4.33;;;2.10;;
71048;SDS011;58704;53.358;-6.238;2023-04-03T00:27:42;7.00;;;2.15;;
71048;SDS011;58704;53.358;-6.238;2023-04-03T00:30:08;5.33;;;2.60;;
71048;SDS011;58704;53.358;-6.238;2023-04-03T00:32:35;3.97;;;2.22;;
71048;SDS011;58704;53.358;-6.238;2023-04-03T00:35:00;6.93;;;2.80;;
71048;SDS011;58704;53.358;-6.238;2023-04-03T00:37:26;6.63;;;2.70;;
71048;SDS011;58704;53.358;-6.238;2023-04-03T00:39:52;4.13;;;2.55;;
71048;SDS011;58704;53.358;-6.238;2023-04-03T00:42:18;5.83;;;2.83;;
71048;SDS011;58704;53.358;-6.238;2023-04-03T00:47:10;6.30;;;2.00;;
71048;SDS011;58704;53.358;-6.238;2023-04-03T00:49:37;4.20;;;2.10;;
71048;SDS011;58704;53.358;-6.238;2023-04-03T00:52:03;4.03;;;1.93;;
71048;SDS011;58704;53.358;-6.238;2023-04-03T00:54:31;5.25;;;2.08;;
71048;SDS011;58704;53.358;-6.238;2023-04-03T00:56:57;3.53;;;2.13;;
71048;SDS011;58704;53.358;-6.238;2023-04-03T00:59:24;5.50;;;2.23;;
71048;SDS011;58704;53.358;-6.238;2023-04-03T01:01:55;7.65;;;2.30;;
71048;SDS011;58704;53.358;-6.238;2023-04-03T01:04:27;4.47;;;2.65;;
71048;SDS011;58704;53.358;-6.238;2023-04-03T01:06:55;6.80;;;1.55;;
71048;SDS011;58704;53.358;-6.238;2023-04-03T01:09:21;4.90;;;2.13;;
71048;SDS011;58704;53.358;-6.238;2023-04-03T01:11:47;7.77;;;1.80;;
71048;SDS011;58704;53.358;-6.238;2023-04-03T01:14:13;4.72;;;1.90;;
71048;SDS011;58704;53.358;-6.238;2023-04-03T01:16:38;4.43;;;2.23;;
71048;SDS011;58704;53.358;-6.238;2023-04-03T01:19:05;4.60;;;1.95;;
71048;SDS011;58704;53.358;-6.238;2023-04-03T01:26:51;5.72;;;1.67;;
71048;SDS011;58704;53.358;-6.238;2023-04-03T01:29:17;4.77;;;1.90;;
71048;SDS011;58704;53.358;-6.238;2023-04-03T01:31:47;5.00;;;1.80;;
71048;SDS011;58704;53.358;-6.238;2023-04-03T01:34:13;2.88;;;1.55;;
71048;SDS011;58704;53.358;-6.238;2023-04-03T01:36:39;3.93;;;1.70;;
71048;SDS011;58704;53.358;-6.238;2023-04-03T01:39:06;5.60;;;1.90;;
71048;SDS011;58704;53.358;-6.238;2023-04-03T01:41:31;3.30;;;1.67;;
71048;SDS011;58704;53.358;-6.238;2023-04-03T01:43:57;6.20;;;1.70;;
71048;SDS011;58704;53.358;-6.238;2023-04-03T01:46:22;3.80;;;2.23;;
71048;SDS011;58704;53.358;-6.238;2023-04-03T01:48:48;2.43;;;1.93;;
71048;SDS011;58704;53.358;-6.238;2023-04-03T01:51:14;4.47;;;2.03;;
71048;SDS011;58704;53.358;-6.238;2023-04-03T01:53:40;6.18;;;2.15;;
71048;SDS011;58704;53.358;-6.238;2023-04-03T01:56:05;4.40;;;2.10;;
71048;SDS011;58704;53.358;-6.238;2023-04-03T01:58:31;4.90;;;1.97;;
71048;SDS011;58704;53.358;-6.238;2023-04-03T02:00:57;4.27;;;2.00;;
71048;SDS011;58704;53.358;-6.238;2023-04-03T02:03:22;4.23;;;1.80;;
71048;SDS011;58704;53.358;-6.238;2023-04-03T02:05:48;5.57;;;1.90;;
71048;SDS011;58704;53.358;-6.238;2023-04-03T02:08:13;2.47;;;1.63;;
71048;SDS011;58704;53.358;-6.238;2023-04-03T02:10:39;3.17;;;1.87;;
71048;SDS011;58704;53.358;-6.238;2023-04-03T02:13:04;4.23;;;1.80;;
71048;SDS011;58704;53.358;-6.238;2023-04-03T02:15:30;5.87;;;1.70;;
71048;SDS011;58704;53.358;-6.238;2023-04-03T02:17:55;2.97;;;1.70;;
71048;SDS011;58704;53.358;-6.238;2023-04-03T02:20:20;4.07;;;1.90;;
71048;SDS011;58704;53.358;-6.238;2023-04-03T02:22:46;4.10;;;2.10;;
71048;SDS011;58704;53.358;-6.238;2023-04-03T02:25:11;3.42;;;1.95;;
71048;SDS011;58704;53.358;-6.238;2023-04-03T02:27:37;4.37;;;1.93;;
71048;SDS011;58704;53.358;-6.238;2023-04-03T02:30:03;5.47;;;1.77;;
71048;SDS011;58704;53.358;-6.238;2023-04-03T02:32:30;3.53;;;1.80;;
71048;SDS011;58704;53.358;-6.238;2023-04-03T02:34:55;5.67;;;2.10;;
71048;SDS011;58704;53.358;-6.238;2023-04-03T02:37:21;3.03;;;1.50;;
71048;SDS011;58704;53.358;-6.238;2023-04-03T02:39:47;5.72;;;1.90;;
71048;SDS011;58704;53.358;-6.238;2023-04-03T02:42:12;4.03;;;1.80;;
71048;SDS011;58704;53.358;-6.238;2023-04-03T02:44:38;5.93;;;2.00;;
71048;SDS011;58704;53.358;-6.238;2023-04-03T02:47:04;4.40;;;2.00;;
71048;SDS011;58704;53.358;-6.238;2023-04-03T02:49:29;3.33;;;1.90;;
71048;SDS011;58704;53.358;-6.238;2023-04-03T02:51:55;5.83;;;1.60;;
71048;SDS011;58704;53.358;-6.238;2023-04-03T02:54:20;3.67;;;2.10;;
71048;SDS011;58704;53.358;-6.238;2023-04-03T02:56:47;4.88;;;1.98;;
71048;SDS011;58704;53.358;-6.238;2023-04-03T02:59:12;5.83;;;2.07;;
71048;SDS011;58704;53.358;-6.238;2023-04-03T03:01:37;4.67;;;2.17;;
71048;SDS011;58704;53.358;-6.238;2023-04-03T03:04:03;4.80;;;2.33;;
71048;SDS011;58704;53.358;-6.238;2023-04-03T03:06:29;6.43;;;3.10;;
71048;SDS011;58704;53.358;-6.238;2023-04-03T03:08:54;7.73;;;2.90;;
71048;SDS011;58704;53.358;-6.238;2023-04-03T03:11:20;7.70;;;2.90;;
71048;SDS011;58704;53.358;-6.238;2023-04-03T03:13:46;3.78;;;2.47;;
71048;SDS011;58704;53.358;-6.238;2023-04-03T03:16:11;7.50;;;2.50;;
71048;SDS011;58704;53.358;-6.238;2023-04-03T03:18:37;6.40;;;3.07;;
71048;SDS011;58704;53.358;-6.238;2023-04-03T03:21:02;8.30;;;2.33;;
71048;SDS011;58704;53.358;-6.238;2023-04-03T03:23:29;7.45;;;2.40;;
71048;SDS011;58704;53.358;-6.238;2023-04-03T03:25:58;7.00;;;2.28;;
71048;SDS011;58704;53.358;-6.238;2023-04-03T03:28:25;8.57;;;2.15;;
71048;SDS011;58704;53.358;-6.238;2023-04-03T03:30:50;7.17;;;2.90;;
71048;SDS011;58704;53.358;-6.238;2023-04-03T03:33:16;4.07;;;2.47;;
71048;SDS011;58704;53.358;-6.238;2023-04-03T03:35:43;6.80;;;2.70;;
71048;SDS011;58704;53.358;-6.238;2023-04-03T03:38:09;4.55;;;2.95;;
71048;SDS011;58704;53.358;-6.238;2023-04-03T03:40:34;7.30;;;2.80;;
71048;SDS011;58704;53.358;-6.238;2023-04-03T03:43:00;6.90;;;3.33;;
71048;SDS011;58704;53.358;-6.238;2023-04-03T03:45:25;4.00;;;2.80;;
71048;SDS011;58704;53.358;-6.238;2023-04-03T03:47:51;7.03;;;2.90;;
71048;SDS011;58704;53.358;-6.238;2023-04-03T03:50:16;7.67;;;3.23;;
71048;SDS011;58704;53.358;-6.238;2023-04-03T03:52:42;6.22;;;2.83;;
71048;SDS011;58704;53.358;-6.238;2023-04-03T03:55:07;4.93;;;2.80;;
71048;SDS011;58704;53.358;-6.238;2023-04-03T03:57:34;5.68;;;2.80;;
71048;SDS011;58704;53.358;-6.238;2023-04-03T04:00:00;7.27;;;3.03;;
71048;SDS011;58704;53.358;-6.238;2023-04-03T04:02:25;10.95;;;3.20;;
71048;SDS011;58704;53.358;-6.238;2023-04-03T04:04:51;8.60;;;3.00;;
71048;SDS011;58704;53.358;-6.238;2023-04-03T04:07:17;9.35;;;3.45;;
71048;SDS011;58704;53.358;-6.238;2023-04-03T04:09:42;7.87;;;3.47;;
71048;SDS011;58704;53.358;-6.238;2023-04-03T04:12:08;6.03;;;2.90;;
71048;SDS011;58704;53.358;-6.238;2023-04-03T04:14:33;7.70;;;3.67;;
71048;SDS011;58704;53.358;-6.238;2023-04-03T04:16:58;9.00;;;3.10;;
71048;SDS011;58704;53.358;-6.238;2023-04-03T04:19:24;6.43;;;3.40;;
71048;SDS011;58704;53.358;-6.238;2023-04-03T04:21:49;12.67;;;3.70;;
71048;SDS011;58704;53.358;-6.238;2023-04-03T04:24:15;10.25;;;3.92;;
71048;SDS011;58704;53.358;-6.238;2023-04-03T04:26:40;7.00;;;3.60;;
71048;SDS011;58704;53.358;-6.238;2023-04-03T04:29:06;9.27;;;3.17;;
71048;SDS011;58704;53.358;-6.238;2023-04-03T04:31:31;6.05;;;2.97;;
71048;SDS011;58704;53.358;-6.238;2023-04-03T04:33:57;11.07;;;3.20;;
71048;SDS011;58704;53.358;-6.238;2023-04-03T04:36:22;5.57;;;3.20;;
71048;SDS011;58704;53.358;-6.238;2023-04-03T04:38:47;7.00;;;3.20;;
71048;SDS011;58704;53.358;-6.238;2023-04-03T04:41:13;6.03;;;3.33;;
71048;SDS011;58704;53.358;-6.238;2023-04-03T04:43:38;8.20;;;3.42;;
71048;SDS011;58704;53.358;-6.238;2023-04-03T04:46:05;5.50;;;3.40;;
71048;SDS011;58704;53.358;-6.238;2023-04-03T04:48:32;9.52;;;4.03;;
71048;SDS011;58704;53.358;-6.238;2023-04-03T04:50:58;10.50;;;4.20;;
71048;SDS011;58704;53.358;-6.238;2023-04-03T04:53:23;7.10;;;4.10;;
71048;SDS011;58704;53.358;-6.238;2023-04-03T04:55:49;7.53;;;3.50;;
71048;SDS011;58704;53.358;-6.238;2023-04-03T04:58:14;9.57;;;4.00;;
71048;SDS011;58704;53.358;-6.238;2023-04-03T05:00:40;6.50;;;4.00;;
71048;SDS011;58704;53.358;-6.238;2023-04-03T05:03:05;8.73;;;4.33;;
71048;SDS011;58704;53.358;-6.238;2023-04-03T05:05:30;6.37;;;4.23;;
71048;SDS011;58704;53.358;-6.238;2023-04-03T05:07:56;11.23;;;4.90;;
71048;SDS011;58704;53.358;-6.238;2023-04-03T05:10:21;7.83;;;4.30;;
71048;SDS011;58704;53.358;-6.238;2023-04-03T05:12:47;6.67;;;4.37;;
71048;SDS011;58704;53.358;-6.238;2023-04-03T05:15:12;6.30;;;4.60;;
71048;SDS011;58704;53.358;-6.238;2023-04-03T05:17:38;8.23;;;4.38;;
71048;SDS011;58704;53.358;-6.238;2023-04-03T05:20:03;6.97;;;4.23;;
71048;SDS011;58704;53.358;-6.238;2023-04-03T05:22:30;7.50;;;4.97;;
71048;SDS011;58704;53.358;-6.238;2023-04-03T05:24:55;5.30;;;3.80;;
71048;SDS011;58704;53.358;-6.238;2023-04-03T05:27:21;11.77;;;5.83;;
71048;SDS011;58704;53.358;-6.238;2023-04-03T05:29:48;6.60;;;4.60;;
71048;SDS011;58704;53.358;-6.238;2023-04-03T05:32:14;7.13;;;3.83;;
71048;SDS011;58704;53.358;-6.238;2023-04-03T05:34:39;8.35;;;4.35;;
71048;SDS011;58704;53.358;-6.238;2023-04-03T05:37:06;12.60;;;4.50;;
71048;SDS011;58704;53.358;-6.238;2023-04-03T05:39:32;11.07;;;4.90;;
71048;SDS011;58704;53.358;-6.238;2023-04-03T05:41:58;7.47;;;4.20;;
71048;SDS011;58704;53.358;-6.238;2023-04-03T05:44:23;7.57;;;4.70;;
71048;SDS011;58704;53.358;-6.238;2023-04-03T05:46:48;7.93;;;4.70;;
71048;SDS011;58704;53.358;-6.238;2023-04-03T05:49:14;9.23;;;4.65;;
71048;SDS011;58704;53.358;-6.238;2023-04-03T05:51:39;12.70;;;4.73;;
71048;SDS011;58704;53.358;-6.238;2023-04-03T05:56:36;8.70;;;4.72;;
71048;SDS011;58704;53.358;-6.238;2023-04-03T05:59:02;12.37;;;4.80;;
71048;SDS011;58704;53.358;-6.238;2023-04-03T06:01:27;12.00;;;4.80;;
71048;SDS011;58704;53.358;-6.238;2023-04-03T06:03:53;18.73;;;5.10;;
71048;SDS011;58704;53.358;-6.238;2023-04-03T06:06:19;16.80;;;5.87;;
71048;SDS011;58704;53.358;-6.238;2023-04-03T06:08:44;13.50;;;7.23;;
71048;SDS011;58704;53.358;-6.238;2023-04-03T06:11:11;15.40;;;6.88;;
71048;SDS011;58704;53.358;-6.238;2023-04-03T06:13:36;18.43;;;7.17;;
71048;SDS011;58704;53.358;-6.238;2023-04-03T06:16:02;28.55;;;7.85;;
71048;SDS011;58704;53.358;-6.238;2023-04-03T06:18:28;18.23;;;7.43;;
71048;SDS011;58704;53.358;-6.238;2023-04-03T06:20:55;19.13;;;8.20;;
71048;SDS011;58704;53.358;-6.238;2023-04-03T06:23:20;14.80;;;7.30;;
71048;SDS011;58704;53.358;-6.238;2023-04-03T06:25:45;27.27;;;7.47;;
71048;SDS011;58704;53.358;-6.238;2023-04-03T06:28:12;19.10;;;7.13;;
71048;SDS011;58704;53.358;-6.238;2023-04-03T06:30:37;14.73;;;7.37;;
71048;SDS011;58704;53.358;-6.238;2023-04-03T06:33:03;21.00;;;7.10;;
71048;SDS011;58704;53.358;-6.238;2023-04-03T06:35:28;19.08;;;7.78;;
71048;SDS011;58704;53.358;-6.238;2023-04-03T06:37:55;19.08;;;7.85;;
71048;SDS011;58704;53.358;-6.238;2023-04-03T06:40:22;18.67;;;7.40;;
71048;SDS011;58704;53.358;-6.238;2023-04-03T06:42:48;18.63;;;7.13;;
71048;SDS011;58704;53.358;-6.238;2023-04-03T06:45:14;26.90;;;7.70;;
71048;SDS011;58704;53.358;-6.238;2023-04-03T06:47:53;20.15;;;7.55;;
71048;SDS011;58704;53.358;-6.238;2023-04-03T06:50:21;22.67;;;7.15;;
71048;SDS011;58704;53.358;-6.238;2023-04-03T06:52:48;18.17;;;6.57;;
71048;SDS011;58704;53.358;-6.238;2023-04-03T06:55:18;15.98;;;6.13;;
71048;SDS011;58704;53.358;-6.238;2023-04-03T06:57:46;18.57;;;5.87;;
71048;SDS011;58704;53.358;-6.238;2023-04-03T07:00:21;22.67;;;6.88;;
71048;SDS011;58704;53.358;-6.238;2023-04-03T07:02:50;22.13;;;6.35;;
71048;SDS011;58704;53.358;-6.238;2023-04-03T07:05:21;15.80;;;5.55;;
71048;SDS011;58704;53.358;-6.238;2023-04-03T07:07:49;15.90;;;6.03;;
71048;SDS011;58704;53.358;-6.238;2023-04-03T07:10:18;17.52;;;6.65;;
71048;SDS011;58704;53.358;-6.238;2023-04-03T07:12:46;15.80;;;5.55;;
71048;SDS011;58704;53.358;-6.238;2023-04-03T07:15:12;18.80;;;5.87;;
71048;SDS011;58704;53.358;-6.238;2023-04-03T07:17:39;17.50;;;5.55;;
71048;SDS011;58704;53.358;-6.238;2023-04-03T07:20:07;10.73;;;5.65;;
71048;SDS011;58704;53.358;-6.238;2023-04-03T07:22:33;15.60;;;5.63;;
71048;SDS011;58704;53.358;-6.238;2023-04-03T07:24:59;15.83;;;5.97;;
71048;SDS011;58704;53.358;-6.238;2023-04-03T07:27:25;19.10;;;5.72;;
71048;SDS011;58704;53.358;-6.238;2023-04-03T07:29:53;14.35;;;6.00;;
71048;SDS011;58704;53.358;-6.238;2023-04-03T07:32:21;17.87;;;5.00;;
71048;SDS011;58704;53.358;-6.238;2023-04-03T07:34:46;21.85;;;6.03;;
71048;SDS011;58704;53.358;-6.238;2023-04-03T07:37:12;21.17;;;5.63;;
71048;SDS011;58704;53.358;-6.238;2023-04-03T07:39:46;17.50;;;5.07;;
71048;SDS011;58704;53.358;-6.238;2023-04-03T07:42:14;15.65;;;5.22;;
71048;SDS011;58704;53.358;-6.238;2023-04-03T07:44:39;17.37;;;5.10;;
71048;SDS011;58704;53.358;-6.238;2023-04-03T07:47:05;14.25;;;4.82;;
71048;SDS011;58704;53.358;-6.238;2023-04-03T07:49:41;19.20;;;4.72;;
71048;SDS011;58704;53.358;-6.238;2023-04-03T07:52:09;12.27;;;4.07;;
71048;SDS011;58704;53.358;-6.238;2023-04-03T07:54:37;17.27;;;4.30;;
71048;SDS011;58704;53.358;-6.238;2023-04-03T07:57:12;13.15;;;3.70;;
71048;SDS011;58704;53.358;-6.238;2023-04-03T07:59:41;15.50;;;4.05;;
71048;SDS011;58704;53.358;-6.238;2023-04-03T08:02:16;11.20;;;3.95;;
71048;SDS011;58704;53.358;-6.238;2023-04-03T08:04:44;12.60;;;4.03;;
71048;SDS011;58704;53.358;-6.238;2023-04-03T08:07:13;14.55;;;3.63;;
71048;SDS011;58704;53.358;-6.238;2023-04-03T08:09:51;11.43;;;3.33;;
71048;SDS011;58704;53.358;-6.238;2023-04-03T08:12:26;11.70;;;3.70;;
71048;SDS011;58704;53.358;-6.238;2023-04-03T08:14:59;15.15;;;3.97;;
71048;SDS011;58704;53.358;-6.238;2023-04-03T08:17:34;15.52;;;3.63;;
71048;SDS011;58704;53.358;-6.238;2023-04-03T08:20:30;12.95;;;3.13;;
71048;SDS011;58704;53.358;-6.238;2023-04-03T08:23:21;12.60;;;3.20;;
71048;SDS011;58704;53.358;-6.238;2023-04-03T08:25:50;15.33;;;3.37;;
71048;SDS011;58704;53.358;-6.238;2023-04-03T08:28:19;15.95;;;3.35;;
71048;SDS011;58704;53.358;-6.238;2023-04-03T08:30:45;15.65;;;3.45;;
71048;SDS011;58704;53.358;-6.238;2023-04-03T08:33:11;13.60;;;3.07;;
71048;SDS011;58704;53.358;-6.238;2023-04-03T08:35:40;23.10;;;3.73;;
71048;SDS011;58704;53.358;-6.238;2023-04-03T08:38:09;15.88;;;3.13;;
71048;SDS011;58704;53.358;-6.238;2023-04-03T08:40:35;11.23;;;4.03;;
71048;SDS011;58704;53.358;-6.238;2023-04-03T08:45:46;14.02;;;4.78;;
71048;SDS011;58704;53.358;-6.238;2023-04-03T08:48:26;13.15;;;3.47;;
71048;SDS011;58704;53.358;-6.238;2023-04-03T08:50:58;17.38;;;4.30;;
71048;SDS011;58704;53.358;-6.238;2023-04-03T08:53:28;15.93;;;3.77;;
71048;SDS011;58704;53.358;-6.238;2023-04-03T08:56:00;16.52;;;4.32;;
71048;SDS011;58704;53.358;-6.238;2023-04-03T08:58:49;13.55;;;4.50;;
71048;SDS011;58704;53.358;-6.238;2023-04-03T09:01:42;15.68;;;4.30;;
71048;SDS011;58704;53.358;-6.238;2023-04-03T09:04:12;19.27;;;4.55;;
71048;SDS011;58704;53.358;-6.238;2023-04-03T09:06:43;16.13;;;4.60;;
71048;SDS011;58704;53.358;-6.238;2023-04-03T09:16:48;11.55;;;3.45;;
71048;SDS011;58704;53.358;-6.238;2023-04-03T09:19:41;12.88;;;4.25;;
71048;SDS011;58704;53.358;-6.238;2023-04-03T09:22:49;18.87;;;3.70;;
71048;SDS011;58704;53.358;-6.238;2023-04-03T09:28:20;13.02;;;3.95;;
71048;SDS011;58704;53.358;-6.238;2023-04-03T09:30:48;10.65;;;3.78;;
71048;SDS011;58704;53.358;-6.238;2023-04-03T09:33:16;13.43;;;3.25;;
71048;SDS011;58704;53.358;-6.238;2023-04-03T09:36:11;16.70;;;4.30;;
71048;SDS011;58704;53.358;-6.238;2023-04-03T09:38:47;14.45;;;4.20;;
71048;SDS011;58704;53.358;-6.238;2023-04-03T09:41:33;16.55;;;4.45;;
71048;SDS011;58704;53.358;-6.238;2023-04-03T09:43:59;16.97;;;3.80;;
71048;SDS011;58704;53.358;-6.238;2023-04-03T09:46:28;13.05;;;4.35;;
71048;SDS011;58704;53.358;-6.238;2023-04-03T09:48:56;14.63;;;4.17;;
71048;SDS011;58704;53.358;-6.238;2023-04-03T09:51:27;12.07;;;3.90;;
71048;SDS011;58704;53.358;-6.238;2023-04-03T09:53:53;14.50;;;3.90;;
71048;SDS011;58704;53.358;-6.238;2023-04-03T09:56:29;19.02;;;3.90;;
71048;SDS011;58704;53.358;-6.238;2023-04-03T10:01:28;12.00;;;3.50;;
71048;SDS011;58704;53.358;-6.238;2023-04-03T10:04:13;11.13;;;3.92;;
71048;SDS011;58704;53.358;-6.238;2023-04-03T10:06:44;15.07;;;4.18;;
71048;SDS011;58704;53.358;-6.238;2023-04-03T10:09:27;21.25;;;3.83;;
71048;SDS011;58704;53.358;-6.238;2023-04-03T10:11:59;19.33;;;4.70;;
71048;SDS011;58704;53.358;-6.238;2023-04-03T10:14:39;11.67;;;4.07;;
71048;SDS011;58704;53.358;-6.238;2023-04-03T10:34:05;15.10;;;4.57;;
71048;SDS011;58704;53.358;-6.238;2023-04-03T10:36:47;13.75;;;4.32;;
71048;SDS011;58704;53.358;-6.238;2023-04-03T10:39:23;18.02;;;4.40;;
71048;SDS011;58704;53.358;-6.238;2023-04-03T10:42:03;13.17;;;3.83;;
71048;SDS011;58704;53.358;-6.238;2023-04-03T10:47:21;23.30;;;5.25;;
71048;SDS011;58704;53.358;-6.238;2023-04-03T10:52:26;23.90;;;5.13;;
71048;SDS011;58704;53.358;-6.238;2023-04-03T10:57:47;14.75;;;5.68;;
71048;SDS011;58704;53.358;-6.238;2023-04-03T11:00:17;20.70;;;5.90;;
71048;SDS011;58704;53.358;-6.238;2023-04-03T11:02:49;20.27;;;4.57;;
71048;SDS011;58704;53.358;-6.238;2023-04-03T11:05:31;20.20;;;5.35;;
71048;SDS011;58704;53.358;-6.238;2023-04-03T11:08:07;16.00;;;5.20;;
71048;SDS011;58704;53.358;-6.238;2023-04-03T11:10:47;16.45;;;5.38;;
71048;SDS011;58704;53.358;-6.238;2023-04-03T11:16:38;19.25;;;5.10;;
71048;SDS011;58704;53.358;-6.238;2023-04-03T11:19:18;19.38;;;4.93;;
71048;SDS011;58704;53.358;-6.238;2023-04-03T11:22:09;16.60;;;4.50;;
71048;SDS011;58704;53.358;-6.238;2023-04-03T11:25:13;16.85;;;5.22;;
71048;SDS011;58704;53.358;-6.238;2023-04-03T11:28:02;21.30;;;6.53;;
71048;SDS011;58704;53.358;-6.238;2023-04-03T11:36:58;19.33;;;5.03;;
71048;SDS011;58704;53.358;-6.238;2023-04-03T11:39:36;22.98;;;6.05;;
71048;SDS011;58704;53.358;-6.238;2023-04-03T11:47:51;20.60;;;5.35;;
71048;SDS011;58704;53.358;-6.238;2023-04-03T12:14:01;18.05;;;5.05;;
71048;SDS011;58704;53.358;-6.238;2023-04-03T12:16:39;19.40;;;4.72;;
71048;SDS011;58704;53.358;-6.238;2023-04-03T12:22:39;21.80;;;5.95;;
71048;SDS011;58704;53.358;-6.238;2023-04-03T12:25:53;20.50;;;5.68;;
71048;SDS011;58704;53.358;-6.238;2023-04-03T12:28:34;24.10;;;5.72;;
71048;SDS011;58704;53.358;-6.238;2023-04-03T12:31:22;22.15;;;6.10;;
71048;SDS011;58704;53.358;-6.238;2023-04-03T12:37:16;16.80;;;4.72;;
71048;SDS011;58704;53.358;-6.238;2023-04-03T12:53:13;26.35;;;5.00;;
71048;SDS011;58704;53.358;-6.238;2023-04-03T12:58:55;17.85;;;4.47;;
71048;SDS011;58704;53.358;-6.238;2023-04-03T13:01:40;22.60;;;5.13;;
71048;SDS011;58704;53.358;-6.238;2023-04-03T13:04:23;25.23;;;5.37;;
71048;SDS011;58704;53.358;-6.238;2023-04-03T13:23:24;21.95;;;4.95;;
71048;SDS011;58704;53.358;-6.238;2023-04-03T13:29:23;15.93;;;4.50;;
71048;SDS011;58704;53.358;-6.238;2023-04-03T13:32:18;21.23;;;5.40;;
71048;SDS011;58704;53.358;-6.238;2023-04-03T13:40:14;17.02;;;4.65;;
71048;SDS011;58704;53.358;-6.238;2023-04-03T13:43:01;18.63;;;5.05;;
71048;SDS011;58704;53.358;-6.238;2023-04-03T14:19:34;15.05;;;4.13;;
71048;SDS011;58704;53.358;-6.238;2023-04-03T14:24:50;9.02;;;4.03;;
71048;SDS011;58704;53.358;-6.238;2023-04-03T14:27:20;13.43;;;4.17;;
71048;SDS011;58704;53.358;-6.238;2023-04-03T14:29:51;16.35;;;4.32;;
71048;SDS011;58704;53.358;-6.238;2023-04-03T14:32:31;19.13;;;4.10;;
71048;SDS011;58704;53.358;-6.238;2023-04-03T14:34:58;13.45;;;4.07;;
71048;SDS011;58704;53.358;-6.238;2023-04-03T14:37:36;15.45;;;4.15;;
71048;SDS011;58704;53.358;-6.238;2023-04-03T14:40:02;17.73;;;4.33;;
71048;SDS011;58704;53.358;-6.238;2023-04-03T14:42:37;17.27;;;4.43;;
71048;SDS011;58704;53.358;-6.238;2023-04-03T14:45:07;12.98;;;4.15;;
71048;SDS011;58704;53.358;-6.238;2023-04-03T14:47:35;18.55;;;3.67;;
71048;SDS011;58704;53.358;-6.238;2023-04-03T14:50:07;20.15;;;4.63;;
71048;SDS011;58704;53.358;-6.238;2023-04-03T14:52:34;14.00;;;3.97;;
71048;SDS011;58704;53.358;-6.238;2023-04-03T14:55:06;16.77;;;4.30;;
71048;SDS011;58704;53.358;-6.238;2023-04-03T14:57:42;14.02;;;4.63;;
71048;SDS011;58704;53.358;-6.238;2023-04-03T15:00:17;17.25;;;3.80;;
71048;SDS011;58704;53.358;-6.238;2023-04-03T15:03:03;17.33;;;3.85;;
71048;SDS011;58704;53.358;-6.238;2023-04-03T15:05:46;13.17;;;4.30;;
71048;SDS011;58704;53.358;-6.238;2023-04-03T16:00:51;15.73;;;4.90;;
71048;SDS011;58704;53.358;-6.238;2023-04-03T16:03:18;17.60;;;4.57;;
71048;SDS011;58704;53.358;-6.238;2023-04-03T16:06:25;18.85;;;4.47;;
71048;SDS011;58704;53.358;-6.238;2023-04-03T16:09:01;20.88;;;4.97;;
71048;SDS011;58704;53.358;-6.238;2023-04-03T16:11:27;12.18;;;4.15;;
71048;SDS011;58704;53.358;-6.238;2023-04-03T16:13:53;17.77;;;4.33;;
71048;SDS011;58704;53.358;-6.238;2023-04-03T16:16:19;16.60;;;3.90;;
71048;SDS011;58704;53.358;-6.238;2023-04-03T16:18:53;14.23;;;4.47;;
71048;SDS011;58704;53.358;-6.238;2023-04-03T16:21:20;17.27;;;4.18;;
71048;SDS011;58704;53.358;-6.238;2023-04-03T16:23:45;20.10;;;4.80;;
71048;SDS011;58704;53.358;-6.238;2023-04-03T16:26:21;21.13;;;5.00;;
71048;SDS011;58704;53.358;-6.238;2023-04-03T16:28:50;12.65;;;4.18;;
71048;SDS011;58704;53.358;-6.238;2023-04-03T16:31:21;14.03;;;3.90;;
71048;SDS011;58704;53.358;-6.238;2023-04-03T16:33:48;14.68;;;4.80;;
71048;SDS011;58704;53.358;-6.238;2023-04-03T16:36:13;18.83;;;4.38;;
71048;SDS011;58704;53.358;-6.238;2023-04-03T16:38:42;14.60;;;4.00;;
71048;SDS011;58704;53.358;-6.238;2023-04-03T16:41:07;11.60;;;3.95;;
71048;SDS011;58704;53.358;-6.238;2023-04-03T16:43:33;12.77;;;5.00;;
71048;SDS011;58704;53.358;-6.238;2023-04-03T16:46:03;16.63;;;3.90;;
71048;SDS011;58704;53.358;-6.238;2023-04-03T16:48:32;13.60;;;4.00;;
71048;SDS011;58704;53.358;-6.238;2023-04-03T16:50:58;19.83;;;4.38;;
71048;SDS011;58704;53.358;-6.238;2023-04-03T16:53:24;10.53;;;3.87;;
71048;SDS011;58704;53.358;-6.238;2023-04-03T16:55:52;11.10;;;4.03;;
71048;SDS011;58704;53.358;-6.238;2023-04-03T16:58:18;16.33;;;3.80;;
71048;SDS011;58704;53.358;-6.238;2023-04-03T17:00:43;15.03;;;3.23;;
71048;SDS011;58704;53.358;-6.238;2023-04-03T17:03:09;18.48;;;4.07;;
71048;SDS011;58704;53.358;-6.238;2023-04-03T17:05:34;12.47;;;4.47;;
71048;SDS011;58704;53.358;-6.238;2023-04-03T17:08:00;9.75;;;3.88;;
71048;SDS011;58704;53.358;-6.238;2023-04-03T17:10:26;18.33;;;4.07;;
71048;SDS011;58704;53.358;-6.238;2023-04-03T17:12:52;14.85;;;4.03;;
71048;SDS011;58704;53.358;-6.238;2023-04-03T17:15:18;14.10;;;5.17;;
71048;SDS011;58704;53.358;-6.238;2023-04-03T17:17:44;13.65;;;4.03;;
71048;SDS011;58704;53.358;-6.238;2023-04-03T17:20:11;11.18;;;3.90;;
71048;SDS011;58704;53.358;-6.238;2023-04-03T17:22:37;21.00;;;4.60;;
71048;SDS011;58704;53.358;-6.238;2023-04-03T17:25:02;19.40;;;5.50;;
71048;SDS011;58704;53.358;-6.238;2023-04-03T17:27:28;19.67;;;4.40;;
71048;SDS011;58704;53.358;-6.238;2023-04-03T17:29:53;16.97;;;4.10;;
71048;SDS011;58704;53.358;-6.238;2023-04-03T17:32:19;20.63;;;4.80;;
71048;SDS011;58704;53.358;-6.238;2023-04-03T17:34:45;16.98;;;4.95;;
71048;SDS011;58704;53.358;-6.238;2023-04-03T17:37:12;13.63;;;4.17;;
71048;SDS011;58704;53.358;-6.238;2023-04-03T17:39:37;17.85;;;4.90;;
71048;SDS011;58704;53.358;-6.238;2023-04-03T17:42:02;22.77;;;4.80;;
71048;SDS011;58704;53.358;-6.238;2023-04-03T17:44:28;18.17;;;5.97;;
71048;SDS011;58704;53.358;-6.238;2023-04-03T17:46:54;17.27;;;4.40;;
71048;SDS011;58704;53.358;-6.238;2023-04-03T17:49:19;17.63;;;4.83;;
71048;SDS011;58704;53.358;-6.238;2023-04-03T17:51:49;16.27;;;3.97;;
71048;SDS011;58704;53.358;-6.238;2023-04-03T17:54:35;17.48;;;4.30;;
71048;SDS011;58704;53.358;-6.238;2023-04-03T17:57:03;17.10;;;4.80;;
71048;SDS011;58704;53.358;-6.238;2023-04-03T17:59:30;16.83;;;4.00;;
71048;SDS011;58704;53.358;-6.238;2023-04-03T18:01:56;10.15;;;3.53;;
71048;SDS011;58704;53.358;-6.238;2023-04-03T18:04:21;15.40;;;4.10;;
71048;SDS011;58704;53.358;-6.238;2023-04-03T18:06:50;19.70;;;4.40;;
71048;SDS011;58704;53.358;-6.238;2023-04-03T18:12:05;15.23;;;4.88;;
71048;SDS011;58704;53.358;-6.238;2023-04-03T18:14:32;16.92;;;4.45;;
71048;SDS011;58704;53.358;-6.238;2023-04-03T18:16:58;15.00;;;5.05;;
71048;SDS011;58704;53.358;-6.238;2023-04-03T18:19:24;11.50;;;3.47;;
71048;SDS011;58704;53.358;-6.238;2023-04-03T18:21:51;11.13;;;3.63;;
71048;SDS011;58704;53.358;-6.238;2023-04-03T18:24:17;14.88;;;4.28;;
71048;SDS011;58704;53.358;-6.238;2023-04-03T18:26:44;13.40;;;4.20;;
71048;SDS011;58704;53.358;-6.238;2023-04-03T18:29:10;16.80;;;3.65;;